Time;durP1;ratioP1;P1;durP2;ratioP2;P2;SDS_P1;SDS_P2;PMS_P1;PMS_P2;Temp;Humidity;BMP_temperature;BMP_pressure;BME280_temperature;BME280_humidity;BME280_pressure;Samples;Min_cycle;Max_cycle;Signal;HPM_P1;HPM_P2
2022/02/08 03:45:38;;;;;;;9.50;3.10;;;6.70;84.20;;;;;;5709087;24;20914;31
2022/02/08 03:48:05;;;;;;;13.73;3.47;;;6.60;84.10;;;;;;4739496;30;20358;-82
2022/02/08 03:50:32;;;;;;;;;;;6.70;84.30;;;;;;4726178;30;20033;-83
2022/02/08 03:52:59;;;;;;;11.32;2.95;;;6.60;84.00;;;;;;4727251;30;19933;-82
2022/02/08 03:55:24;;;;;;;12.20;2.17;;;6.60;84.00;;;;;;4725801;30;20338;-82
2022/02/08 03:57:50;;;;;;;9.02;2.83;;;6.60;84.20;;;;;;4697145;30;20037;-83
2022/02/08 04:00:17;;;;;;;7.13;2.20;;;6.60;84.40;;;;;;4697123;30;20029;-83
2022/02/08 04:02:54;;;;;;;14.05;3.03;;;6.60;84.40;;;;;;4719985;30;20414;-83
2022/02/08 04:07:59;;;;;;;9.57;2.85;;;6.60;84.80;;;;;;4738500;30;20057;-82
2022/02/08 04:10:27;;;;;;;9.68;2.30;;;6.50;84.20;;;;;;4727515;30;20055;-82
2022/02/08 04:13:09;;;;;;;10.10;3.05;;;6.50;84.50;;;;;;4740205;30;20049;-82
2022/02/08 04:18:47;;;;;;;5.10;2.25;;;6.40;85.10;;;;;;4735591;30;20045;-84
2022/02/08 04:40:17;;;;;;;10.38;2.17;;;6.20;84.30;;;;;;4727017;30;20111;-83
2022/02/08 04:43:04;;;;;;;9.70;1.85;;;6.20;84.40;;;;;;4726915;30;20063;-82
2022/02/08 04:45:42;;;;;;;7.93;2.63;;;6.10;84.40;;;;;;4711159;30;20104;-83
2022/02/08 04:51:14;;;;;;;4.97;1.50;;;6.10;84.30;;;;;;4732209;30;20044;-82
2022/02/08 04:53:47;;;;;;;6.57;1.73;;;6.10;84.30;;;;;;4733385;30;20044;-82
2022/02/08 04:56:33;;;;;;;6.13;2.10;;;6.00;84.30;;;;;;4704075;30;20049;-83
2022/02/08 05:43:22;;;;;;;9.40;2.72;;;5.60;84.30;;;;;;4614775;31;20048;-83
2022/02/08 05:48:24;;;;;;;9.85;2.65;;;5.70;84.20;;;;;;4628549;31;20055;-83
2022/02/08 05:51:06;;;;;;;7.50;2.58;;;5.70;84.00;;;;;;4641697;31;20079;-84
2022/02/08 05:53:45;;;;;;;5.40;2.42;;;5.70;83.80;;;;;;4629528;31;20148;-83
2022/02/08 05:56:14;;;;;;;8.30;2.30;;;5.60;83.00;;;;;;4629281;31;20040;-83
2022/02/08 05:58:42;;;;;;;8.32;2.08;;;5.60;82.30;;;;;;4632623;30;20343;-83
2022/02/08 06:01:08;;;;;;;7.18;2.15;;;5.70;82.50;;;;;;4658150;30;20232;-84
2022/02/08 06:03:50;;;;;;;8.40;2.10;;;5.70;82.00;;;;;;4682185;30;20037;-83
2022/02/08 06:06:15;;;;;;;9.90;2.20;;;5.70;81.40;;;;;;4681856;30;20099;-83
2022/02/08 06:08:41;;;;;;;9.73;2.47;;;5.70;81.80;;;;;;4695911;30;20088;-84
2022/02/08 06:11:15;;;;;;;8.13;3.22;;;5.70;81.70;;;;;;4681796;30;20056;-83
2022/02/08 06:13:41;;;;;;;10.18;5.03;;;5.70;80.80;;;;;;4710293;30;20122;-83
2022/02/08 06:16:16;;;;;;;9.63;3.65;;;5.70;80.80;;;;;;4695857;30;20072;-83
2022/02/08 06:18:42;;;;;;;10.45;3.15;;;5.70;80.90;;;;;;4710246;30;20033;-83
2022/02/08 06:21:08;;;;;;;8.00;2.42;;;5.70;80.30;;;;;;4681422;30;20264;-84
2022/02/08 06:23:34;;;;;;;13.80;3.30;;;5.70;80.00;;;;;;4707313;30;20038;-83
2022/02/08 06:25:59;;;;;;;10.93;2.30;;;5.70;79.50;;;;;;4707337;30;20109;-83
2022/02/08 06:28:25;;;;;;;8.27;3.10;;;5.70;79.50;;;;;;4681312;30;20043;-83
2022/02/08 06:30:52;;;;;;;8.88;3.08;;;5.80;79.40;;;;;;4726895;30;20045;-83
2022/02/08 06:33:19;;;;;;;10.17;3.00;;;5.80;78.80;;;;;;4723592;30;20041;-82
2022/02/08 06:35:44;;;;;;;;;;;5.80;78.90;;;;;;4700759;30;20041;-82
2022/02/08 06:38:13;;;;;;;13.93;3.10;;;5.80;78.90;;;;;;4705973;30;19933;-84
2022/02/08 06:40:53;;;;;;;7.50;2.45;;;5.70;78.50;;;;;;4701134;30;20037;-83
2022/02/08 06:43:21;;;;;;;13.60;2.90;;;5.80;78.00;;;;;;4698082;30;20041;-83
2022/02/08 06:45:47;;;;;;;13.13;2.92;;;5.70;77.20;;;;;;4707447;30;20068;-83
2022/02/08 06:48:14;;;;;;;8.13;2.80;;;5.70;76.60;;;;;;4682001;30;20045;-83
2022/02/08 06:50:40;;;;;;;8.38;2.85;;;5.80;77.00;;;;;;4694442;30;20060;-83
2022/02/08 06:53:06;;;;;;;8.18;2.28;;;5.80;76.10;;;;;;4694631;30;20045;-83
2022/02/08 06:55:32;;;;;;;10.00;2.17;;;5.80;75.80;;;;;;4711539;30;20150;-84
2022/02/08 06:58:07;;;;;;;15.30;2.78;;;5.90;76.10;;;;;;4702314;30;20340;-83
2022/02/08 07:00:40;;;;;;;10.52;2.70;;;5.90;75.80;;;;;;4715966;30;20049;-84
2022/02/08 07:03:10;;;;;;;10.82;2.28;;;5.90;75.50;;;;;;4714219;30;20367;-83
2022/02/08 07:05:37;;;;;;;12.60;2.70;;;5.90;75.50;;;;;;4716035;30;20044;-83
2022/02/08 07:08:03;;;;;;;11.43;2.55;;;5.90;75.40;;;;;;4715802;30;20029;-83
2022/02/08 07:10:31;;;;;;;7.40;2.53;;;5.90;75.70;;;;;;4716852;30;20044;-82
2022/02/08 07:12:57;;;;;;;8.35;2.33;;;6.00;75.00;;;;;;4710575;30;20094;-82
2022/02/08 07:15:23;;;;;;;11.20;2.53;;;6.00;74.50;;;;;;4716083;30;20037;-83
2022/02/08 07:17:49;;;;;;;8.02;2.30;;;6.10;74.60;;;;;;4718876;30;20042;-83
2022/02/08 07:20:15;;;;;;;8.83;2.60;;;6.20;74.70;;;;;;4729526;30;20239;-83
2022/02/08 07:22:41;;;;;;;11.23;2.25;;;6.30;74.50;;;;;;4700756;30;20042;-83
2022/02/08 07:25:08;;;;;;;12.75;2.20;;;6.30;74.30;;;;;;4714810;30;20037;-83
2022/02/08 07:27:34;;;;;;;12.20;3.30;;;6.40;74.50;;;;;;4703272;30;20037;-83
2022/02/08 07:30:08;;;;;;;8.82;2.55;;;6.50;74.30;;;;;;4718694;30;20278;-83
2022/02/08 07:32:38;;;;;;;11.88;2.33;;;6.60;74.40;;;;;;4718158;30;20140;-83
2022/02/08 07:37:46;;;;;;;13.63;2.90;;;6.60;73.50;;;;;;4716668;30;20057;-83
2022/02/08 07:40:25;;;;;;;10.80;2.63;;;6.70;74.30;;;;;;4717172;30;20107;-83
2022/02/08 07:42:51;;;;;;;9.45;2.70;;;6.70;74.80;;;;;;4700536;30;20029;-83
2022/02/08 07:45:18;;;;;;;11.73;2.63;;;6.70;75.10;;;;;;4715909;30;20041;-82
2022/02/08 07:47:44;;;;;;;13.93;3.22;;;6.80;75.40;;;;;;4719511;30;20048;-82
2022/02/08 07:50:10;;;;;;;17.48;2.80;;;6.80;75.50;;;;;;4704346;30;20057;-82
2022/02/08 07:52:35;;;;;;;12.07;2.63;;;6.80;75.40;;;;;;4701752;30;20033;-83
2022/02/08 07:55:01;;;;;;;16.45;3.45;;;6.90;74.70;;;;;;4717351;30;20041;-83
2022/02/08 07:57:27;;;;;;;9.13;2.95;;;6.90;75.30;;;;;;4716374;30;20049;-83
2022/02/08 07:59:53;;;;;;;7.75;2.88;;;7.10;75.70;;;;;;4715093;30;20282;-84
2022/02/08 08:02:19;;;;;;;14.35;3.55;;;7.20;75.70;;;;;;4715592;30;20048;-82
2022/02/08 08:04:44;;;;;;;8.88;2.63;;;7.30;75.20;;;;;;4713984;30;20036;-83
2022/02/08 08:07:10;;;;;;;10.52;2.80;;;7.30;75.30;;;;;;4714565;30;20072;-83
2022/02/08 08:09:40;;;;;;;7.65;2.42;;;7.50;75.10;;;;;;4715313;30;20037;-83
2022/02/08 08:12:09;;;;;;;15.63;3.60;;;7.70;73.60;;;;;;4715845;30;20036;-83
2022/02/08 08:14:35;;;;;;;14.48;2.75;;;7.80;73.60;;;;;;4715450;30;20110;-83
2022/02/08 08:17:25;;;;;;;11.95;2.85;;;7.90;73.70;;;;;;4713611;30;20084;-83
2022/02/08 08:19:47;;;;;;;10.35;3.13;;;8.10;72.50;;;;;;4726826;30;20071;-82
2022/02/08 08:22:13;;;;;;;13.25;2.53;;;8.00;72.00;;;;;;4713705;30;20085;-83
2022/02/08 08:24:39;;;;;;;8.00;2.38;;;7.90;71.60;;;;;;4719527;30;20257;-83
2022/02/08 08:27:07;;;;;;;12.30;2.80;;;7.80;72.30;;;;;;4709844;30;20380;-83
2022/02/08 08:29:33;;;;;;;18.73;3.75;;;7.70;72.80;;;;;;4698076;30;20041;-83
2022/02/08 08:31:59;;;;;;;12.95;3.05;;;7.70;73.60;;;;;;4693427;30;20046;-83
2022/02/08 08:34:25;;;;;;;9.90;2.22;;;7.60;73.50;;;;;;4693124;30;20256;-83
2022/02/08 08:36:52;;;;;;;10.10;2.95;;;7.60;73.50;;;;;;4693222;30;20130;-83
2022/02/08 08:39:24;;;;;;;16.25;3.42;;;7.60;73.90;;;;;;4692698;30;20269;-83
2022/02/08 08:42:07;;;;;;;11.88;3.10;;;7.60;75.40;;;;;;4693016;30;20049;-83
2022/02/08 08:52:11;;;;;;;20.67;4.70;;;7.70;74.00;;;;;;4700076;30;20053;-83
2022/02/08 08:54:36;;;;;;;9.77;2.17;;;7.80;73.80;;;;;;4713301;30;20029;-83
2022/02/08 08:57:02;;;;;;;10.63;2.28;;;7.70;72.60;;;;;;4700041;30;20037;-83
2022/02/08 08:59:28;;;;;;;9.88;2.47;;;7.60;72.90;;;;;;4714498;30;20026;-83
2022/02/08 09:01:54;;;;;;;14.10;2.63;;;7.70;73.20;;;;;;4699995;30;20229;-83
2022/02/08 09:04:20;;;;;;;12.07;2.70;;;7.80;72.40;;;;;;4701190;30;20049;-83
2022/02/08 09:07:01;;;;;;;16.20;4.50;;;7.80;72.00;;;;;;4701038;30;20045;-82
2022/02/08 09:09:36;;;;;;;9.60;2.10;;;8.00;71.50;;;;;;4715861;30;20029;-82
2022/02/08 09:12:15;;;;;;;11.98;2.80;;;8.10;70.80;;;;;;4710896;30;20305;-82
2022/02/08 09:15:07;;;;;;;13.27;2.67;;;8.00;69.80;;;;;;4694484;30;20103;-82
2022/02/08 09:17:58;;;;;;;9.02;2.97;;;7.90;69.40;;;;;;4692907;30;20046;-83
2022/02/08 09:28:08;;;;;;;8.73;2.00;;;8.00;69.10;;;;;;4697713;30;20061;-82
2022/02/08 09:30:44;;;;;;;10.80;2.30;;;8.00;68.80;;;;;;4696894;30;20395;-82
2022/02/08 09:33:10;;;;;;;11.45;2.40;;;8.10;68.80;;;;;;4698207;30;20083;-83
2022/02/08 09:35:36;;;;;;;11.55;2.60;;;8.20;68.10;;;;;;4696596;30;20038;-82
2022/02/08 09:38:02;;;;;;;10.32;2.83;;;8.20;67.90;;;;;;4708390;30;20423;-83
2022/02/08 09:40:29;;;;;;;10.00;2.40;;;8.20;67.60;;;;;;4708473;30;20360;-83
2022/02/08 09:42:56;;;;;;;15.77;2.50;;;8.20;67.90;;;;;;4681392;30;20030;-82
2022/02/08 09:45:23;;;;;;;9.77;2.13;;;8.20;67.70;;;;;;4681113;30;20045;-82
2022/02/08 09:50:23;;;;;;;14.23;3.08;;;8.30;67.60;;;;;;4726099;30;20037;-82
2022/02/08 09:52:55;;;;;;;20.85;3.58;;;8.30;67.60;;;;;;4711153;30;20084;-83
2022/02/08 09:55:23;;;;;;;23.38;11.32;;;8.30;67.90;;;;;;4682487;30;20109;-83
2022/02/08 09:57:49;;;;;;;9.43;3.30;;;8.20;67.10;;;;;;4710263;30;20033;-82
2022/02/08 10:00:18;;;;;;;12.95;1.92;;;8.20;67.90;;;;;;4695996;30;20049;-83
2022/02/08 10:02:43;;;;;;;11.70;2.45;;;8.20;66.80;;;;;;4707109;30;20081;-81
2022/02/08 10:05:11;;;;;;;10.80;2.35;;;8.10;67.20;;;;;;4705229;30;20042;-81
2022/02/08 10:07:37;;;;;;;9.27;2.70;;;8.10;67.50;;;;;;4693681;30;20038;-81
2022/02/08 10:10:22;;;;;;;12.98;2.40;;;8.20;67.80;;;;;;4695518;30;20233;-81
2022/02/08 10:22:31;;;;;;;8.00;2.00;;;8.10;67.80;;;;;;4709131;30;20080;-81
2022/02/08 10:25:01;;;;;;;8.73;2.58;;;8.10;67.60;;;;;;4708426;30;20404;-82
2022/02/08 10:39:04;;;;;;;8.98;2.42;;;8.30;66.70;;;;;;4691992;30;19919;-81
2022/02/08 10:41:33;;;;;;;8.98;2.40;;;8.40;67.50;;;;;;4659647;30;20042;-81
2022/02/08 10:44:05;;;;;;;14.90;2.50;;;8.40;66.60;;;;;;4661982;30;20266;-82
2022/02/08 10:46:33;;;;;;;11.05;2.60;;;8.40;67.10;;;;;;4661247;30;20054;-81
2022/02/08 10:49:19;;;;;;;8.80;2.72;;;8.40;66.60;;;;;;4673343;30;20045;-82
2022/02/08 10:54:46;;;;;;;12.18;2.45;;;8.40;67.00;;;;;;4672361;30;20392;-82
2022/02/08 10:57:22;;;;;;;11.15;2.50;;;8.50;66.50;;;;;;4673611;30;20070;-81
2022/02/08 11:00:04;;;;;;;9.63;2.50;;;8.50;65.60;;;;;;4676703;30;20046;-81
2022/02/08 11:02:53;;;;;;;17.95;2.30;;;8.40;65.50;;;;;;4670346;30;20043;-82
2022/02/08 11:05:27;;;;;;;7.88;1.80;;;8.30;65.90;;;;;;4675598;30;20045;-83
2022/02/08 11:16:18;;;;;;;5.63;2.10;;;8.40;66.30;;;;;;4668599;30;20050;-80
2022/02/08 11:21:46;;;;;;;14.68;2.72;;;8.60;65.90;;;;;;4635813;30;20044;-81
2022/02/08 11:24:27;;;;;;;8.40;2.08;;;8.60;65.60;;;;;;4591679;31;20316;-81
2022/02/08 11:27:01;;;;;;;5.93;2.60;;;8.70;65.90;;;;;;4604960;31;20044;-81
2022/02/08 11:29:36;;;;;;;8.25;2.08;;;8.80;66.20;;;;;;4591497;31;20048;-81
2022/02/08 11:32:20;;;;;;;7.80;1.52;;;8.90;65.50;;;;;;4606646;31;20363;-80
2022/02/08 12:07:52;;;;;;;5.80;1.35;;;9.40;68.70;;;;;;4705368;30;20044;-81
2022/02/08 12:10:41;;;;;;;6.32;1.73;;;9.40;69.00;;;;;;4691568;30;20049;-82
2022/02/08 13:03:04;;;;;;;7.65;1.70;;;10.20;66.50;;;;;;4671601;30;20331;-81
2022/02/08 14:03:31;;;;;;;13.27;1.90;;;10.50;67.90;;;;;;4721190;30;20029;-82
2022/02/08 14:06:05;;;;;;;5.57;1.00;;;10.50;67.20;;;;;;4721250;30;20041;-81
2022/02/08 14:22:16;;;;;;;4.17;1.17;;;10.60;66.70;;;;;;4755559;30;20031;-82
2022/02/08 14:25:16;;;;;;;7.63;1.48;;;10.50;66.90;;;;;;4763191;30;20864;-82
2022/02/08 14:30:33;;;;;;;4.40;1.20;;;10.60;67.00;;;;;;4751544;30;20216;-83
2022/02/08 15:13:05;;;;;;;5.78;1.33;;;10.00;68.30;;;;;;4724296;30;20036;-82
2022/02/08 15:18:15;;;;;;;4.15;1.30;;;10.00;68.70;;;;;;4732942;30;20044;-82
2022/02/08 15:20:40;;;;;;;3.80;1.02;;;10.00;68.60;;;;;;4730715;30;20078;-82
2022/02/08 15:23:10;;;;;;;3.00;1.17;;;10.00;68.50;;;;;;4713523;30;20056;-82
2022/02/08 15:25:45;;;;;;;6.60;1.50;;;10.00;68.10;;;;;;4729925;30;20032;-83
2022/02/08 15:28:16;;;;;;;2.45;0.80;;;10.00;68.10;;;;;;4724332;30;20135;-83
2022/02/08 15:31:19;;;;;;;7.95;1.10;;;10.00;68.20;;;;;;4747683;30;20066;-83
2022/02/08 15:33:45;;;;;;;3.47;1.00;;;9.90;68.30;;;;;;4742969;30;20088;-81
2022/02/08 15:36:15;;;;;;;6.40;1.02;;;9.90;68.70;;;;;;4730244;30;20259;-82
2022/02/08 15:38:47;;;;;;;5.97;1.10;;;9.90;69.20;;;;;;4712536;30;20056;-82
2022/02/08 15:41:13;;;;;;;4.60;2.78;;;9.90;69.60;;;;;;4710532;30;20052;-83
2022/02/08 15:43:39;;;;;;;4.78;1.60;;;9.80;70.10;;;;;;4695048;30;20352;-82
2022/02/08 15:46:20;;;;;;;5.65;1.55;;;9.80;70.40;;;;;;4695291;30;20073;-83
2022/02/08 15:48:49;;;;;;;4.53;1.35;;;9.70;70.60;;;;;;4690033;30;20116;-82
2022/02/08 15:51:30;;;;;;;3.30;1.40;;;9.70;71.20;;;;;;4692933;30;20053;-82
2022/02/08 15:56:53;;;;;;;3.80;1.40;;;9.60;71.60;;;;;;4696020;30;20411;-83
2022/02/08 16:10:04;;;;;;;6.43;1.80;;;9.60;72.60;;;;;;4629803;30;20267;-82
2022/02/08 16:20:33;;;;;;;3.13;1.10;;;9.70;72.60;;;;;;4630950;30;20378;-83
2022/02/08 16:23:32;;;;;;;6.50;1.17;;;9.70;72.50;;;;;;4626774;30;20098;-83
2022/02/08 16:26:15;;;;;;;3.55;1.63;;;9.60;72.00;;;;;;4626923;31;20066;-83
2022/02/08 16:28:52;;;;;;;3.80;1.30;;;9.60;72.10;;;;;;4611850;31;20216;-82
2022/02/08 17:01:14;;;;;;;3.53;1.35;;;9.50;75.60;;;;;;4727476;30;20041;-82
2022/02/08 17:48:58;;;;;;;6.15;1.20;;;9.50;78.50;;;;;;4603121;30;20085;-81
2022/02/08 17:51:24;;;;;;;2.08;1.00;;;9.50;78.10;;;;;;4651433;30;20038;-82
2022/02/08 17:53:50;;;;;;;4.90;1.52;;;9.50;78.30;;;;;;4726218;30;20048;-83
2022/02/08 17:56:16;;;;;;;3.03;1.15;;;9.60;78.30;;;;;;4715069;30;20045;-82
2022/02/08 17:58:44;;;;;;;3.45;1.65;;;9.60;78.40;;;;;;4713158;30;20074;-84
2022/02/08 18:01:10;;;;;;;3.05;1.17;;;9.60;78.50;;;;;;4696812;30;20159;-83
2022/02/08 18:03:35;;;;;;;2.70;1.40;;;9.60;78.90;;;;;;4723157;30;20041;-82
2022/02/08 18:06:01;;;;;;;3.30;1.33;;;9.60;79.10;;;;;;4728502;30;20226;-82
2022/02/08 18:08:28;;;;;;;4.53;1.30;;;9.60;79.30;;;;;;4700163;30;20214;-82
2022/02/08 18:10:58;;;;;;;7.13;1.15;;;9.70;79.20;;;;;;4714078;30;20068;-82
2022/02/08 18:13:27;;;;;;;8.73;3.60;;;9.70;79.30;;;;;;4734691;30;20056;-82
2022/02/08 18:15:53;;;;;;;3.83;0.88;;;9.70;79.60;;;;;;4728060;30;20260;-82
2022/02/08 18:18:29;;;;;;;2.42;0.65;;;9.60;79.70;;;;;;4712836;30;20112;-83
2022/02/08 18:20:58;;;;;;;4.25;0.90;;;9.70;79.80;;;;;;4713992;30;20063;-83
2022/02/08 18:27:05;;;;;;;4.72;0.80;;;9.70;80.00;;;;;;4722835;30;20044;-82
2022/02/08 19:15:05;;;;;;;6.55;1.50;;;9.60;83.10;;;;;;4729113;30;20044;-83
2022/02/08 19:20:08;;;;;;;9.05;1.45;;;9.60;83.20;;;;;;4719197;30;20060;-82
2022/02/08 19:22:34;;;;;;;5.00;1.50;;;9.60;83.30;;;;;;4719206;30;20155;-83
2022/02/08 19:25:00;;;;;;;3.85;1.40;;;9.60;83.40;;;;;;4708558;30;20263;-83
2022/02/08 19:27:26;;;;;;;3.22;1.30;;;9.60;83.30;;;;;;4703462;30;20241;-83
2022/02/08 19:29:52;;;;;;;6.85;1.70;;;9.60;83.50;;;;;;4701957;30;20095;-82
2022/02/08 19:32:30;;;;;;;4.95;1.35;;;9.60;83.60;;;;;;4693854;30;20327;-82
2022/02/08 19:34:58;;;;;;;3.10;1.45;;;9.60;83.70;;;;;;4706963;30;20053;-83
2022/02/08 19:37:24;;;;;;;4.43;1.60;;;9.60;83.50;;;;;;4694160;30;20087;-83
2022/02/08 19:39:50;;;;;;;3.28;1.30;;;9.50;83.50;;;;;;4693953;30;20068;-83
2022/02/08 19:42:16;;;;;;;6.75;1.63;;;9.60;83.40;;;;;;4703853;30;20036;-83
2022/02/08 19:45:22;;;;;;;4.90;1.70;;;9.60;83.20;;;;;;4722706;30;20302;-84
2022/02/08 19:47:48;;;;;;;6.90;1.80;;;9.60;83.10;;;;;;4727852;30;20124;-83
2022/02/08 19:50:14;;;;;;;4.93;1.52;;;9.60;83.20;;;;;;4704429;30;20352;-84
2022/02/08 19:52:40;;;;;;;2.30;1.48;;;9.60;83.30;;;;;;4707670;30;20131;-82
2022/02/08 19:58:11;;;;;;;1.83;1.08;;;9.50;83.40;;;;;;4730956;30;20040;-83
2022/02/08 20:00:42;;;;;;;9.88;1.50;;;9.60;83.70;;;;;;4737055;30;20036;-83
2022/02/08 20:03:09;;;;;;;6.43;1.63;;;9.50;83.80;;;;;;4742071;30;20080;-83
2022/02/08 20:05:37;;;;;;;4.53;1.30;;;9.50;83.90;;;;;;4741986;30;20055;-82
2022/02/08 20:08:03;;;;;;;3.55;1.45;;;9.60;83.90;;;;;;4735187;30;20044;-82
2022/02/08 20:10:29;;;;;;;5.40;1.80;;;9.60;84.00;;;;;;4723416;30;20338;-83
2022/02/08 20:12:56;;;;;;;3.28;1.50;;;9.60;83.90;;;;;;4722046;30;20291;-83
2022/02/08 20:15:23;;;;;;;3.72;1.60;;;9.70;83.80;;;;;;4708300;30;20045;-82
2022/02/08 20:17:52;;;;;;;5.60;1.52;;;9.60;84.00;;;;;;4693570;30;20040;-83
2022/02/08 20:20:19;;;;;;;3.22;1.50;;;9.70;84.20;;;;;;4724717;30;20205;-83
2022/02/08 20:22:50;;;;;;;;;;;9.70;84.20;;;;;;4724842;30;20037;-82
2022/02/08 20:25:19;;;;;;;3.05;1.35;;;9.70;84.30;;;;;;4727056;30;19910;-84
2022/02/08 20:30:29;;;;;;;5.28;1.55;;;9.70;84.30;;;;;;4741870;30;20068;-83
2022/02/08 20:32:56;;;;;;;6.10;1.20;;;9.70;84.30;;;;;;4711660;30;20041;-83
2022/02/08 20:35:24;;;;;;;6.60;2.30;;;9.70;84.40;;;;;;4698473;30;20128;-82
2022/02/08 20:37:50;;;;;;;3.75;1.42;;;9.70;84.30;;;;;;4717204;30;20071;-83
2022/02/08 20:40:19;;;;;;;3.03;1.55;;;9.70;84.40;;;;;;4693295;30;20329;-83
2022/02/08 20:42:45;;;;;;;4.50;1.73;;;9.80;84.30;;;;;;4716672;30;20039;-82
2022/02/08 20:45:11;;;;;;;7.00;2.10;;;9.80;84.20;;;;;;4700531;30;20041;-83
2022/02/08 20:47:41;;;;;;;4.05;1.50;;;9.80;84.00;;;;;;4707088;30;20068;-84
2022/02/08 20:50:13;;;;;;;5.80;1.85;;;9.80;84.20;;;;;;4686288;30;20080;-83
2022/02/08 20:52:48;;;;;;;4.80;1.80;;;9.80;84.20;;;;;;4723261;30;20029;-82
2022/02/08 20:55:16;;;;;;;3.42;1.50;;;9.80;84.10;;;;;;4702116;30;20045;-83
2022/02/08 20:57:50;;;;;;;13.27;1.77;;;9.80;84.00;;;;;;4720854;30;20364;-83
2022/02/08 21:00:16;;;;;;;4.43;1.73;;;9.80;84.10;;;;;;4719623;30;20037;-82
